Quinebaug, Connecticut
Current Conditions -  °F | °C
As of 4:54 AM on Thursday 23 Oct 2014 (Local Time) from KORH Reporting Station
Moderate Rain Moderate Rain  
Wind Chill: 37°   Ceiling: 700
Heat Index: 45°   Visibility: 3mi
Dew Point: 44°   Wind: 18mph
Humidity: 97%   Direction: 20°NNE
Pressure: 29.7"   Gusts: 32mph
Location:  42.01°N, 71.94°W
Report Text: KORH 230854Z AUTO 02016G28KT 3SM RA BR BKN007 OVC021 07/07 A2970 RMK AO2 PK WND 02029/0840 SFC VIS 5 SLP061 P0020 60030 T00720067 56035
Loading
Personal Weather Stations






























Interactive Weather Map
Tropical Storm Tracking
New forecast layout! Learn more

10-Day Weather Forecast

Advertisements
Track Severe Weather on mobile